Tuesday, October 23, 2018, 11:35 PM EDT
Back to Local

KMFV, Melfa / Accomack Airport

Location: Melfa, VA, United States Lat: 37.65
Local Time: 11:35 PM EDT ( 3:35 GMT) Lon: -75.767
Time Zone: US/Eastern Elev: 49 ft

Show me the last for .
Show Coded

Time T Td Feel RH Dir Speed Gust Alt SLP Vis Weather Sky Remarks
2018-10-23 23:15 56 51 - 81 340° 7 - 30.07 - 10 BKN075 None
2018-10-23 22:55 54 51 - 89 300° 7 - 30.07 - 10 SCT080 BKN085 None
2018-10-23 22:35 53 50 - 91 230° 5 - 30.04 - 10 CLR None
2018-10-23 22:15 55 50 - 85 210° 3 - 30.04 - 10 SCT080 None
2018-10-23 21:55 55 51 - 84 210° 6 - 30.04 - 10 CLR None
2018-10-23 21:35 56 51 - 82 210° 6 - 30.04 - 10 CLR None
2018-10-23 21:15 56 51 - 80 210° 5 - 30.03 - 10 CLR None
2018-10-23 20:55 55 50 - 82 210° 7 - 30.03 - 10 CLR None
2018-10-23 20:35 55 50 - 81 210° 6 - 30.03 - 10 CLR None
2018-10-23 20:15 56 49 - 78 210° 6 - 30.03 - 10 CLR None
2018-10-23 19:55 55 49 - 80 210° 7 - 30.02 - 10 CLR 6-hr Min Temp (8pm): 53.4°F
6-hr Max Temp (8pm): 68.5°F
2018-10-23 19:35 53 49 - 85 200° 7 - 30.02 - 10 CLR None
2018-10-23 19:15 54 50 - 85 190° 6 - 30.02 - 10 CLR None
2018-10-23 18:55 56 50 - 82 180° 3 - 30.02 - 10 CLR None
2018-10-23 18:35 58 50 - 75 200° 3 - 30.01 - 10 CLR None
2018-10-23 18:15 60 49 - 67 220° 6 - 30.01 - 10 CLR None
2018-10-23 17:55 63 49 - 61 210° 6 - 30.01 - 10 CLR None
2018-10-23 17:35 64 50 - 58 220° 5 - 30.00 - 10 CLR None
2018-10-23 17:15 65 48 - 53 220° 5 - 30.00 - 10 CLR None
2018-10-23 16:55 66 47 - 50 210° 7 - 30.00 - 10 CLR None
2018-10-23 16:35 67 46 - 47 230° 9 - 30.01 - 10 CLR None
2018-10-23 16:15 67 45 - 44 270° 7 - 30.00 - 10 CLR None
2018-10-23 15:55 68 42 - 38 250° 7 - 30.01 - 10 CLR None
2018-10-23 15:35 68 40 - 35 290° 6 - 30.01 - 10 CLR None
2018-10-23 15:15 67 42 - 40 230° 7 - 30.02 - 10 CLR None
2018-10-23 14:55 67 39 - 36 260° 5 - 30.02 - 10 CLR None
2018-10-23 14:35 66 42 - 42 270° 7 - 30.03 - 10 CLR None
2018-10-23 14:15 66 43 - 44 270° 7 - 30.04 - 10 CLR None
2018-10-23 13:55 65 47 - 52 230° 6 - 30.05 - 10 CLR 6-hr Min Temp (2pm): 44.6°F
6-hr Max Temp (2pm): 65.1°F
2018-10-23 13:35 65 47 - 51 260° 7 - 30.06 - 10 CLR None
2018-10-23 13:15 64 47 - 53 300° 8 - 30.07 - 10 CLR None
2018-10-23 12:55 64 45 - 50 310° 6 - 30.09 - 10 CLR None
2018-10-23 12:35 64 46 - 53 260° 7 - 30.09 - 10 CLR None
2018-10-23 12:15 63 46 - 53 260° 8 - 30.10 - 10 CLR None
2018-10-23 11:55 62 47 - 58 240° 6 - 30.11 - 10 CLR None
2018-10-23 11:35 61 46 - 56 270° 9 - 30.11 - 10 CLR None
2018-10-23 11:15 62 47 - 59 260° 7 - 30.11 - 10 CLR None
2018-10-23 10:55 60 46 - 60 270° 7 - 30.12 - 10 CLR None
2018-10-23 10:35 60 47 - 61 250° 7 - 30.12 - 10 CLR None
2018-10-23 10:15 59 46 - 62 230° 9 - 30.13 - 10 CLR None
2018-10-23 09:55 58 46 - 64 230° 9 - 30.12 - 10 CLR None
2018-10-23 09:35 58 47 - 66 260° 9 - 30.14 - 10 CLR None
2018-10-23 09:15 57 47 - 69 260° 7 - 30.14 - 10 CLR None
2018-10-23 08:55 54 48 - 79 240° 3 - 30.14 - 10 CLR None
2018-10-23 08:35 50 47 - 89 220° 3 - 30.14 - 10 CLR None
2018-10-23 08:15 47 44 44 92 240° 5 - 30.13 - 10 CLR None
2018-10-23 07:55 45 42 42 92 230° 5 - 30.12 - 10 CLR 6-hr Min Temp (8am): 42.4°F
6-hr Max Temp (8am): 45.5°F
2018-10-23 07:35 43 42 40 94 220° 6 - 30.13 - 10 CLR None
2018-10-23 07:15 43 42 40 94 200° 6 - 30.13 - 10 CLR None
2018-10-23 06:55 45 42 42 90 190° 5 - 30.13 - 10 CLR None
2018-10-23 06:35 45 42 42 89 180° 6 - 30.13 - 10 CLR None
2018-10-23 06:15 43 42 40 95 180° 6 - 30.13 - 10 CLR None
2018-10-23 05:55 44 42 41 93 180° 5 - 30.13 - 10 CLR None
2018-10-23 05:35 43 42 40 95 190° 6 - 30.13 - 10 CLR None
2018-10-23 05:15 43 42 39 95 190° 7 - 30.14 - 10 CLR None
2018-10-23 04:55 44 43 42 95 190° 5 - 30.14 - 10 CLR None
2018-10-23 04:35 44 42 41 94 190° 6 - 30.14 - 10 CLR None
2018-10-23 04:15 43 42 40 95 190° 6 - 30.15 - 10 CLR None
2018-10-23 03:55 43 42 41 94 200° 5 - 30.16 - 10 CLR None
2018-10-23 03:35 44 42 41 94 210° 5 - 30.16 - 10 CLR None
2018-10-23 03:15 43 42 41 93 210° 3 - 30.17 - 10 CLR None
2018-10-23 02:55 44 41 41 90 200° 5 - 30.17 - 10 CLR None
2018-10-23 02:35 44 42 41 92 190° 6 - 30.18 - 10 CLR None
2018-10-23 02:15 44 41 40 91 200° 7 - 30.18 - 10 CLR None
2018-10-23 01:55 46 42 42 85 210° 6 - 30.18 - 10 CLR 6-hr Min Temp (2am): 43.7°F
6-hr Max Temp (2am): 49.5°F
2018-10-23 01:35 45 42 42 90 200° 5 - 30.19 - 10 CLR None
2018-10-23 01:15 45 41 42 86 180° 6 - 30.19 - 10 CLR None
2018-10-23 00:55 46 42 43 86 190° 6 - 30.20 - 10 CLR 24-hr Min Temp (1am): 36.3°F
24-hr Max Temp (1am): 57.6°F
2018-10-23 00:35 44 42 40 92 180° 7 - 30.20 - 10 CLR None
2018-10-23 00:15 45 42 42 90 170° 5 - 30.21 - 10 CLR None
2018-10-22 23:55 45 42 43 91 170° 3 - 30.21 - 10 CLR None

Support USWX by starting your Amazon purchase here.